An Run Da 2 — BHNX — position and weather

sailwx.info

Track history (hours):
 
Tides and Currents Weather Stations Pressure Air Temp Water Temp Dewpoint Dewpoint Depression Visibility Wind Speed Wind Dir Waves Ship Positions

An Run Da 2

Last reported at 2014-Dec-12 08:33 UTC. Time now 2014-Dec-22 20:37 UTC.
Position N 23°38' E 117°51'.
Warning: this ship's position is 10 days out of date.

Length 147 m; draft 8.5 m.

Type: Cargo ship. MMSI: 413360230.

Date/timePositionNaut miles runAvg speedWind from/ knotsBaromVisibWave heightAir tempDewpointWater temp
2014-Dec-12 08:33N 23°38' E 117°51'1310.5
2014-Dec-12 07:20N 23°46' E 118°01'910.0
2014-Dec-12 06:26N 23°52' E 118°09'9 9.8
2014-Dec-12 05:33N 23°58' E 118°16'58 9.7
2014-Dec-11 23:32N 24°36' E 119°04'34010.3
2014-Dec-10 14:33N 29°21' E 122°30'1610.8
2014-Dec-10 13:06N 29°36' E 122°35'611.6
2014-Dec-10 12:33N 29°42' E 122°38'1211.0
2014-Dec-10 11:27N 29°54' E 122°38'1111.8
2014-Dec-10 10:31N 30°06' E 122°37'3310.9
2014-Dec-10 07:32N 30°38' E 122°38'10 9.6
2014-Dec-10 06:27N 30°48' E 122°34'9 9.0
2014-Dec-10 05:28N 30°56' E 122°31'8 8.4
2014-Dec-10 04:33N 31°04' E 122°30'7 7.3
2014-Dec-10 03:33N 31°06' E 122°22'7 6.8
2014-Dec-10 02:33N 31°08' E 122°15'8 8.1
2014-Dec-10 01:33N 31°13' E 122°07'1111.4
2014-Dec-10 00:33N 31°16' E 121°54'1212.1
2014-Dec-09 23:33N 31°20' E 121°41'1010.3
2014-Dec-09 22:33N 31°25' E 121°30'10 9.8
2014-Dec-09 21:34N 31°32' E 121°22'10 9.7
2014-Dec-09 20:33N 31°39' E 121°14'9 8.5
2014-Dec-09 19:33N 31°44' E 121°06'8 8.1
2014-Dec-09 18:33N 31°47' E 120°57'10 9.8
2014-Dec-09 17:33N 31°56' E 120°52'1110.6
2014-Dec-09 16:33N 31°60' E 120°41'1111.5
2014-Dec-09 15:34N 32°02' E 120°27'7 7.3
2014-Dec-09 14:33N 31°58' E 120°20'1010.2
2014-Dec-09 13:33N 31°56' E 120°08'1010.2
2014-Dec-09 12:33N 32°01' E 119°58'10 9.6
2014-Dec-09 11:29N 32°10' E 119°53'  
Track history (hours):
 
Tides and Currents Weather Stations Pressure Air Temp Water Temp Dewpoint Dewpoint Depression Visibility Wind Speed Wind Dir Waves Ship Positions

An Run Da 2

Last reported at 2014-Dec-12 08:33 UTC. Time now 2014-Dec-22 20:37 UTC.
Position N 23°38' E 117°51'.
Warning: this ship's position is 10 days out of date.

Length 147 m; draft 8.5 m.

Type: Cargo ship. MMSI: 413360230.

Date/timePositionNaut miles runAvg speedWind from/ knotsBaromVisibWave heightAir tempDewpointWater temp
2014-Dec-12 08:33N 23°38' E 117°51'1310.5
2014-Dec-12 07:20N 23°46' E 118°01'910.0
2014-Dec-12 06:26N 23°52' E 118°09'9 9.8
2014-Dec-12 05:33N 23°58' E 118°16'58 9.7
2014-Dec-11 23:32N 24°36' E 119°04'34010.3
2014-Dec-10 14:33N 29°21' E 122°30'1610.8
2014-Dec-10 13:06N 29°36' E 122°35'611.6
2014-Dec-10 12:33N 29°42' E 122°38'1211.0
2014-Dec-10 11:27N 29°54' E 122°38'1111.8
2014-Dec-10 10:31N 30°06' E 122°37'3310.9
2014-Dec-10 07:32N 30°38' E 122°38'10 9.6
2014-Dec-10 06:27N 30°48' E 122°34'9 9.0
2014-Dec-10 05:28N 30°56' E 122°31'8 8.4
2014-Dec-10 04:33N 31°04' E 122°30'7 7.3
2014-Dec-10 03:33N 31°06' E 122°22'7 6.8
2014-Dec-10 02:33N 31°08' E 122°15'8 8.1
2014-Dec-10 01:33N 31°13' E 122°07'1111.4
2014-Dec-10 00:33N 31°16' E 121°54'1212.1
2014-Dec-09 23:33N 31°20' E 121°41'1010.3
2014-Dec-09 22:33N 31°25' E 121°30'10 9.8
2014-Dec-09 21:34N 31°32' E 121°22'10 9.7
2014-Dec-09 20:33N 31°39' E 121°14'9 8.5
2014-Dec-09 19:33N 31°44' E 121°06'8 8.1
2014-Dec-09 18:33N 31°47' E 120°57'10 9.8
2014-Dec-09 17:33N 31°56' E 120°52'1110.6
2014-Dec-09 16:33N 31°60' E 120°41'1111.5
2014-Dec-09 15:34N 32°02' E 120°27'7 7.3
2014-Dec-09 14:33N 31°58' E 120°20'1010.2
2014-Dec-09 13:33N 31°56' E 120°08'1010.2
2014-Dec-09 12:33N 32°01' E 119°58'10 9.6
2014-Dec-09 11:29N 32°10' E 119°53'  

Dump ship's entire track history